Asian Infinity — 3EVP3 — position and weather

sailwx.info

Track history (hours):
 
Tides and Currents Weather Stations Pressure Air Temp Water Temp Dewpoint Dewpoint Depression Visibility Wind Speed Wind Dir Waves Ship Positions

Asian Infinity

Last reported at 2015-May-04 20:33 UTC. Time now 2015-May-06 12:28 UTC.
Position N 37°36' E 123°12'.

Length 104 m; draft 7.9 m.

Type: Cargo ship. MMSI: 351868000.

Date/timePositionNaut miles runAvg speedWind from/ knotsBaromVisibWave heightAir tempDewpointWater temp
2015-May-04 20:33N 37°36' E 123°12'20 9.9
2015-May-04 18:31N 37°42' E 122°48'1110.8
2015-May-04 17:29N 37°44' E 122°34'1010.8
2015-May-04 16:33N 37°46' E 122°21'1310.4
2015-May-04 15:17N 37°48' E 122°05'810.3
2015-May-04 14:33N 37°49' E 121°55'1010.0
2015-May-04 13:33N 37°51' E 121°43'1010.0
2015-May-04 12:33N 37°53' E 121°30'1010.3
2015-May-04 11:33N 37°55' E 121°18'1010.6
2015-May-04 10:33N 37°57' E 121°05'10 9.3
2015-May-04 09:31N 37°59' E 120°53'1010.5
2015-May-04 08:33N 38°01' E 120°40'8 8.1
2015-May-04 07:33N 38°02' E 120°30'9 9.1
2015-May-04 06:33N 38°07' E 120°20'9 8.9
2015-May-04 05:33N 38°12' E 120°11'9 8.6
2015-May-04 04:33N 38°17' E 120°02'9 8.7
2015-May-04 03:31N 38°22' E 119°52'19 9.3
2015-May-04 01:30N 38°33' E 119°33'77 9.7
2015-May-03 17:32N 38°57' E 117°58'10 9.8
2015-May-03 16:33N 38°58' E 117°46'2 1.4
2015-May-03 15:23N 38°59' E 117°44'0 0.0
2015-May-03 14:11N 38°59' E 117°44'0 0.0
2015-May-03 13:29N 38°59' E 117°44'0 0.0
2015-May-03 12:17N 38°59' E 117°44'0 0.0
2015-May-03 11:29N 38°59' E 117°44'0 0.0
2015-May-03 10:23N 38°59' E 117°44'0 0.0
2015-May-03 09:29N 38°59' E 117°44'0 0.0
2015-May-03 08:23N 38°59' E 117°44'0 0.0
2015-May-03 07:29N 38°59' E 117°44'0 0.0
2015-May-03 06:29N 38°59' E 117°44'0 0.0
2015-May-03 05:29N 38°59' E 117°44'0 0.0
2015-May-03 04:29N 38°59' E 117°44'0 0.0
2015-May-03 03:29N 38°59' E 117°44'0 0.0
2015-May-03 02:30N 38°59' E 117°44'0 0.0
2015-May-03 01:17N 38°59' E 117°44'0 0.0
2015-May-03 00:29N 38°59' E 117°44'0 0.0
2015-May-02 23:17N 38°59' E 117°44'0 0.0
2015-May-02 20:11N 38°59' E 117°44'0 0.0
2015-May-02 18:11N 38°59' E 117°44'0 0.0
2015-May-02 16:29N 38°59' E 117°44'0 0.0
2015-May-02 15:11N 38°59' E 117°44'0 0.0
2015-May-02 13:29N 38°59' E 117°44'0 0.0
2015-May-02 12:29N 38°59' E 117°44'0 0.0
2015-May-02 11:17N 38°59' E 117°44'0 0.0
2015-May-02 10:29N 38°59' E 117°44'0 0.0
2015-May-02 09:29N 38°59' E 117°44'0 0.0
2015-May-02 08:23N 38°59' E 117°44'0 0.0
2015-May-02 07:29N 38°59' E 117°44'0 0.0
2015-May-02 06:29N 38°59' E 117°44'0 0.0
2015-May-02 05:29N 38°59' E 117°44'0 0.0
2015-May-02 04:29N 38°59' E 117°44'0 0.0
2015-May-02 03:23N 38°59' E 117°44'0 0.0
2015-May-02 02:29N 38°59' E 117°44'0 0.0
2015-May-02 01:17N 38°59' E 117°44'0 0.0
2015-May-02 00:17N 38°59' E 117°44'0 0.0
2015-May-01 23:29N 38°59' E 117°44'0 0.0
2015-May-01 22:29N 38°59' E 117°44'0 0.0
2015-May-01 21:29N 38°59' E 117°44'0 0.0
2015-May-01 20:29N 38°59' E 117°44'0 0.0
2015-May-01 19:29N 38°59' E 117°44'0 0.0
2015-May-01 18:23N 38°59' E 117°44'0 0.0
2015-May-01 17:29N 38°59' E 117°44'0 0.0
2015-May-01 16:29N 38°59' E 117°44'0 0.0
2015-May-01 15:23N 38°59' E 117°44'0 0.0
2015-May-01 14:29N 38°59' E 117°44'0 0.0
2015-May-01 13:29N 38°59' E 117°44'0 0.0
2015-May-01 12:29N 38°59' E 117°44'0 0.0
2015-May-01 11:29N 38°59' E 117°44'0 0.0
2015-May-01 10:29N 38°59' E 117°44'0 0.0
2015-May-01 09:29N 38°59' E 117°44'0 0.0
2015-May-01 08:29N 38°59' E 117°44'0 0.0
2015-May-01 07:11N 38°59' E 117°44'0 0.1
2015-May-01 06:33N 38°59' E 117°44'8 8.2
2015-May-01 05:33N 38°57' E 117°54'6 0.6
2015-Apr-30 20:27N 38°55' E 118°01'0 0.0
2015-Apr-30 15:06N 38°55' E 118°01'0 0.0
2015-Apr-30 14:30N 38°55' E 118°01'0 0.0
2015-Apr-30 13:30N 38°55' E 118°01'0 0.0
2015-Apr-30 12:30N 38°55' E 118°01'0 0.4
2015-Apr-30 11:26N 38°55' E 118°01'8 8.7
2015-Apr-30 10:33N 38°58' E 117°51'5 5.0
2015-Apr-30 09:33N 38°59' E 117°45'0 0.0
2015-Apr-30 08:33N 38°59' E 117°45'0 0.0
2015-Apr-30 07:33N 38°59' E 117°45'0 0.0
2015-Apr-30 06:33N 38°59' E 117°45'0 0.0
2015-Apr-30 05:33N 38°59' E 117°45'0 0.0
2015-Apr-30 04:21N 38°59' E 117°45'0 0.0
2015-Apr-30 03:33N 38°59' E 117°45'0 0.0
2015-Apr-30 02:33N 38°59' E 117°45'0 0.0
2015-Apr-30 01:27N 38°59' E 117°45'0 0.0
2015-Apr-30 00:33N 38°59' E 117°45'0 0.0
2015-Apr-29 23:27N 38°59' E 117°45'0 0.0
2015-Apr-29 22:12N 38°59' E 117°45'0 0.0
2015-Apr-29 20:24N 38°59' E 117°45'0 0.0
2015-Apr-29 19:18N 38°59' E 117°45'0 0.0
2015-Apr-29 17:08N 38°59' E 117°45'4 5.7
2015-Apr-29 16:20N 38°58' E 117°51'9 8.9
2015-Apr-29 15:19N 38°58' E 118°02'0 0.0
2015-Apr-29 10:26N 38°58' E 118°02'0 0.1
2015-Apr-29 09:32N 38°58' E 118°02'0 0.0
2015-Apr-29 05:14N 38°58' E 118°02'0 0.0
2015-Apr-29 04:26N 38°58' E 118°02'0 0.0
2015-Apr-29 01:31N 38°58' E 118°02'2 1.7
2015-Apr-29 00:17N 38°56' E 118°04'171 9.7
2015-Apr-28 06:33N 38°42' E 121°43'10 9.9
2015-Apr-28 05:33N 38°51' E 121°45'6 0.2
2015-Apr-27 04:18N 38°57' E 121°47'7 8.4
2015-Apr-27 03:25N 38°50' E 121°49'910.6
2015-Apr-27 02:33N 38°42' E 121°55'1110.5
2015-Apr-27 01:33N 38°34' E 122°02'1210.5
2015-Apr-27 00:23N 38°23' E 122°11'8110.4
2015-Apr-26 16:33N 37°09' E 122°53'1511.4
2015-Apr-26 15:16N 36°55' E 122°53'16210.7
2015-Apr-26 00:06N 34°12' E 122°57'711.1
2015-Apr-25 23:28N 34°05' E 122°56'1111.2
2015-Apr-25 22:29N 33°54' E 122°56'1111.4
2015-Apr-25 21:33N 33°44' E 122°56'1211.7
2015-Apr-25 20:33N 33°32' E 122°54'1211.5
2015-Apr-25 19:33N 33°21' E 122°54'1111.3
2015-Apr-25 18:33N 33°09' E 122°54'1211.1
2015-Apr-25 17:30N 32°58' E 122°55'1010.5
2015-Apr-25 16:33N 32°48' E 122°55'1010.3
2015-Apr-25 15:33N 32°37' E 122°55'1010.0
2015-Apr-25 14:33N 32°28' E 122°56'10 9.6
2015-Apr-25 13:33N 32°18' E 122°55'10 9.9
2015-Apr-25 12:33N 32°08' E 122°55'1010.2
2015-Apr-25 11:33N 31°58' E 122°55'1010.4
2015-Apr-25 10:33N 31°48' E 122°54'1010.3
2015-Apr-25 09:33N 31°37' E 122°53'1211.7
2015-Apr-25 08:33N 31°26' E 122°52'1211.7
2015-Apr-25 07:33N 31°14' E 122°51'1110.7
2015-Apr-25 06:33N 31°05' E 122°44'10 9.9
2015-Apr-25 05:33N 30°59' E 122°35'19 9.3
2015-Apr-25 03:33N 31°03' E 122°13'9 9.3
2015-Apr-25 02:33N 31°04' E 122°03'1211.8
2015-Apr-25 01:33N 31°10' E 121°51'1312.9
2015-Apr-25 00:33N 31°20' E 121°41'10 9.6
2015-Apr-24 23:33N 31°23' E 121°30'2 1.7
2015-Apr-24 22:31N 31°21' E 121°31'0 0.0
2015-Apr-24 21:31N 31°21' E 121°31'  
Track history (hours):
 
Tides and Currents Weather Stations Pressure Air Temp Water Temp Dewpoint Dewpoint Depression Visibility Wind Speed Wind Dir Waves Ship Positions

Asian Infinity

Last reported at 2015-May-04 20:33 UTC. Time now 2015-May-06 12:28 UTC.
Position N 37°36' E 123°12'.

Length 104 m; draft 7.9 m.

Type: Cargo ship. MMSI: 351868000.

Date/timePositionNaut miles runAvg speedWind from/ knotsBaromVisibWave heightAir tempDewpointWater temp
2015-May-04 20:33N 37°36' E 123°12'20 9.9
2015-May-04 18:31N 37°42' E 122°48'1110.8
2015-May-04 17:29N 37°44' E 122°34'1010.8
2015-May-04 16:33N 37°46' E 122°21'1310.4
2015-May-04 15:17N 37°48' E 122°05'810.3
2015-May-04 14:33N 37°49' E 121°55'1010.0
2015-May-04 13:33N 37°51' E 121°43'1010.0
2015-May-04 12:33N 37°53' E 121°30'1010.3
2015-May-04 11:33N 37°55' E 121°18'1010.6
2015-May-04 10:33N 37°57' E 121°05'10 9.3
2015-May-04 09:31N 37°59' E 120°53'1010.5
2015-May-04 08:33N 38°01' E 120°40'8 8.1
2015-May-04 07:33N 38°02' E 120°30'9 9.1
2015-May-04 06:33N 38°07' E 120°20'9 8.9
2015-May-04 05:33N 38°12' E 120°11'9 8.6
2015-May-04 04:33N 38°17' E 120°02'9 8.7
2015-May-04 03:31N 38°22' E 119°52'19 9.3
2015-May-04 01:30N 38°33' E 119°33'77 9.7
2015-May-03 17:32N 38°57' E 117°58'10 9.8
2015-May-03 16:33N 38°58' E 117°46'2 1.4
2015-May-03 15:23N 38°59' E 117°44'0 0.0
2015-May-03 14:11N 38°59' E 117°44'0 0.0
2015-May-03 13:29N 38°59' E 117°44'0 0.0
2015-May-03 12:17N 38°59' E 117°44'0 0.0
2015-May-03 11:29N 38°59' E 117°44'0 0.0
2015-May-03 10:23N 38°59' E 117°44'0 0.0
2015-May-03 09:29N 38°59' E 117°44'0 0.0
2015-May-03 08:23N 38°59' E 117°44'0 0.0
2015-May-03 07:29N 38°59' E 117°44'0 0.0
2015-May-03 06:29N 38°59' E 117°44'0 0.0
2015-May-03 05:29N 38°59' E 117°44'0 0.0
2015-May-03 04:29N 38°59' E 117°44'0 0.0
2015-May-03 03:29N 38°59' E 117°44'0 0.0
2015-May-03 02:30N 38°59' E 117°44'0 0.0
2015-May-03 01:17N 38°59' E 117°44'0 0.0
2015-May-03 00:29N 38°59' E 117°44'0 0.0
2015-May-02 23:17N 38°59' E 117°44'0 0.0
2015-May-02 20:11N 38°59' E 117°44'0 0.0
2015-May-02 18:11N 38°59' E 117°44'0 0.0
2015-May-02 16:29N 38°59' E 117°44'0 0.0
2015-May-02 15:11N 38°59' E 117°44'0 0.0
2015-May-02 13:29N 38°59' E 117°44'0 0.0
2015-May-02 12:29N 38°59' E 117°44'0 0.0
2015-May-02 11:17N 38°59' E 117°44'0 0.0
2015-May-02 10:29N 38°59' E 117°44'0 0.0
2015-May-02 09:29N 38°59' E 117°44'0 0.0
2015-May-02 08:23N 38°59' E 117°44'0 0.0
2015-May-02 07:29N 38°59' E 117°44'0 0.0
2015-May-02 06:29N 38°59' E 117°44'0 0.0
2015-May-02 05:29N 38°59' E 117°44'0 0.0
2015-May-02 04:29N 38°59' E 117°44'0 0.0
2015-May-02 03:23N 38°59' E 117°44'0 0.0
2015-May-02 02:29N 38°59' E 117°44'0 0.0
2015-May-02 01:17N 38°59' E 117°44'0 0.0
2015-May-02 00:17N 38°59' E 117°44'0 0.0
2015-May-01 23:29N 38°59' E 117°44'0 0.0
2015-May-01 22:29N 38°59' E 117°44'0 0.0
2015-May-01 21:29N 38°59' E 117°44'0 0.0
2015-May-01 20:29N 38°59' E 117°44'0 0.0
2015-May-01 19:29N 38°59' E 117°44'0 0.0
2015-May-01 18:23N 38°59' E 117°44'0 0.0
2015-May-01 17:29N 38°59' E 117°44'0 0.0
2015-May-01 16:29N 38°59' E 117°44'0 0.0
2015-May-01 15:23N 38°59' E 117°44'0 0.0
2015-May-01 14:29N 38°59' E 117°44'0 0.0
2015-May-01 13:29N 38°59' E 117°44'0 0.0
2015-May-01 12:29N 38°59' E 117°44'0 0.0
2015-May-01 11:29N 38°59' E 117°44'0 0.0
2015-May-01 10:29N 38°59' E 117°44'0 0.0
2015-May-01 09:29N 38°59' E 117°44'0 0.0
2015-May-01 08:29N 38°59' E 117°44'0 0.0
2015-May-01 07:11N 38°59' E 117°44'0 0.1
2015-May-01 06:33N 38°59' E 117°44'8 8.2
2015-May-01 05:33N 38°57' E 117°54'6 0.6
2015-Apr-30 20:27N 38°55' E 118°01'0 0.0
2015-Apr-30 15:06N 38°55' E 118°01'0 0.0
2015-Apr-30 14:30N 38°55' E 118°01'0 0.0
2015-Apr-30 13:30N 38°55' E 118°01'0 0.0
2015-Apr-30 12:30N 38°55' E 118°01'0 0.4
2015-Apr-30 11:26N 38°55' E 118°01'8 8.7
2015-Apr-30 10:33N 38°58' E 117°51'5 5.0
2015-Apr-30 09:33N 38°59' E 117°45'0 0.0
2015-Apr-30 08:33N 38°59' E 117°45'0 0.0
2015-Apr-30 07:33N 38°59' E 117°45'0 0.0
2015-Apr-30 06:33N 38°59' E 117°45'0 0.0
2015-Apr-30 05:33N 38°59' E 117°45'0 0.0
2015-Apr-30 04:21N 38°59' E 117°45'0 0.0
2015-Apr-30 03:33N 38°59' E 117°45'0 0.0
2015-Apr-30 02:33N 38°59' E 117°45'0 0.0
2015-Apr-30 01:27N 38°59' E 117°45'0 0.0
2015-Apr-30 00:33N 38°59' E 117°45'0 0.0
2015-Apr-29 23:27N 38°59' E 117°45'0 0.0
2015-Apr-29 22:12N 38°59' E 117°45'0 0.0
2015-Apr-29 20:24N 38°59' E 117°45'0 0.0
2015-Apr-29 19:18N 38°59' E 117°45'0 0.0
2015-Apr-29 17:08N 38°59' E 117°45'4 5.7
2015-Apr-29 16:20N 38°58' E 117°51'9 8.9
2015-Apr-29 15:19N 38°58' E 118°02'0 0.0
2015-Apr-29 10:26N 38°58' E 118°02'0 0.1
2015-Apr-29 09:32N 38°58' E 118°02'0 0.0
2015-Apr-29 05:14N 38°58' E 118°02'0 0.0
2015-Apr-29 04:26N 38°58' E 118°02'0 0.0
2015-Apr-29 01:31N 38°58' E 118°02'2 1.7
2015-Apr-29 00:17N 38°56' E 118°04'171 9.7
2015-Apr-28 06:33N 38°42' E 121°43'10 9.9
2015-Apr-28 05:33N 38°51' E 121°45'6 0.2
2015-Apr-27 04:18N 38°57' E 121°47'7 8.4
2015-Apr-27 03:25N 38°50' E 121°49'910.6
2015-Apr-27 02:33N 38°42' E 121°55'1110.5
2015-Apr-27 01:33N 38°34' E 122°02'1210.5
2015-Apr-27 00:23N 38°23' E 122°11'8110.4
2015-Apr-26 16:33N 37°09' E 122°53'1511.4
2015-Apr-26 15:16N 36°55' E 122°53'16210.7
2015-Apr-26 00:06N 34°12' E 122°57'711.1
2015-Apr-25 23:28N 34°05' E 122°56'1111.2
2015-Apr-25 22:29N 33°54' E 122°56'1111.4
2015-Apr-25 21:33N 33°44' E 122°56'1211.7
2015-Apr-25 20:33N 33°32' E 122°54'1211.5
2015-Apr-25 19:33N 33°21' E 122°54'1111.3
2015-Apr-25 18:33N 33°09' E 122°54'1211.1
2015-Apr-25 17:30N 32°58' E 122°55'1010.5
2015-Apr-25 16:33N 32°48' E 122°55'1010.3
2015-Apr-25 15:33N 32°37' E 122°55'1010.0
2015-Apr-25 14:33N 32°28' E 122°56'10 9.6
2015-Apr-25 13:33N 32°18' E 122°55'10 9.9
2015-Apr-25 12:33N 32°08' E 122°55'1010.2
2015-Apr-25 11:33N 31°58' E 122°55'1010.4
2015-Apr-25 10:33N 31°48' E 122°54'1010.3
2015-Apr-25 09:33N 31°37' E 122°53'1211.7
2015-Apr-25 08:33N 31°26' E 122°52'1211.7
2015-Apr-25 07:33N 31°14' E 122°51'1110.7
2015-Apr-25 06:33N 31°05' E 122°44'10 9.9
2015-Apr-25 05:33N 30°59' E 122°35'19 9.3
2015-Apr-25 03:33N 31°03' E 122°13'9 9.3
2015-Apr-25 02:33N 31°04' E 122°03'1211.8
2015-Apr-25 01:33N 31°10' E 121°51'1312.9
2015-Apr-25 00:33N 31°20' E 121°41'10 9.6
2015-Apr-24 23:33N 31°23' E 121°30'2 1.7
2015-Apr-24 22:31N 31°21' E 121°31'0 0.0
2015-Apr-24 21:31N 31°21' E 121°31'  

Dump ship's entire track history